sensor_id;sensor_type;location;lat;lon;timestamp;pressure;altitude;pressure_sealevel;temperature;humidity
50710;BME280;37033;49.994;21.992;2023-04-26T00:00:24;98413.81;;;6.23;89.93
50710;BME280;37033;49.994;21.992;2023-04-26T00:03:14;98416.13;;;6.23;89.72
50710;BME280;37033;49.994;21.992;2023-04-26T00:05:45;98413.52;;;6.23;89.88
50710;BME280;37033;49.994;21.992;2023-04-26T00:08:17;98410.71;;;6.24;89.87
50710;BME280;37033;49.994;21.992;2023-04-26T00:10:47;98411.70;;;6.25;89.79
50710;BME280;37033;49.994;21.992;2023-04-26T00:13:18;98409.08;;;6.25;89.72
50710;BME280;37033;49.994;21.992;2023-04-26T00:15:49;98404.48;;;6.26;89.88
50710;BME280;37033;49.994;21.992;2023-04-26T00:18:19;98407.99;;;6.25;89.77
50710;BME280;37033;49.994;21.992;2023-04-26T00:20:50;98410.44;;;6.26;89.65
50710;BME280;37033;49.994;21.992;2023-04-26T00:23:21;98408.46;;;6.27;89.71
50710;BME280;37033;49.994;21.992;2023-04-26T00:25:51;98407.11;;;6.27;89.70
50710;BME280;37033;49.994;21.992;2023-04-26T00:28:22;98410.21;;;6.28;89.46
50710;BME280;37033;49.994;21.992;2023-04-26T00:30:53;98412.51;;;6.30;89.32
50710;BME280;37033;49.994;21.992;2023-04-26T00:33:26;98416.87;;;6.32;89.38
50710;BME280;37033;49.994;21.992;2023-04-26T00:35:56;98416.58;;;6.33;89.48
50710;BME280;37033;49.994;21.992;2023-04-26T00:38:27;98410.24;;;6.33;89.23
50710;BME280;37033;49.994;21.992;2023-04-26T00:40:58;98417.11;;;6.33;89.63
50710;BME280;37033;49.994;21.992;2023-04-26T00:43:28;98422.86;;;6.32;89.46
50710;BME280;37033;49.994;21.992;2023-04-26T00:45:59;98424.59;;;6.32;89.51
50710;BME280;37033;49.994;21.992;2023-04-26T00:48:30;98423.84;;;6.32;89.34
50710;BME280;37033;49.994;21.992;2023-04-26T00:51:01;98423.90;;;6.32;89.31
50710;BME280;37033;49.994;21.992;2023-04-26T00:53:33;98423.09;;;6.32;89.43
50710;BME280;37033;49.994;21.992;2023-04-26T00:56:05;98426.89;;;6.31;89.33
50710;BME280;37033;49.994;21.992;2023-04-26T00:58:37;98429.31;;;6.31;89.52
50710;BME280;37033;49.994;21.992;2023-04-26T01:01:08;98426.48;;;6.29;89.48
50710;BME280;37033;49.994;21.992;2023-04-26T01:03:39;98431.77;;;6.30;89.44
50710;BME280;37033;49.994;21.992;2023-04-26T01:06:09;98434.31;;;6.27;89.48
50710;BME280;37033;49.994;21.992;2023-04-26T01:08:40;98431.23;;;6.26;89.42
50710;BME280;37033;49.994;21.992;2023-04-26T01:11:12;98432.56;;;6.26;89.40
50710;BME280;37033;49.994;21.992;2023-04-26T01:13:43;98438.21;;;6.26;89.43
50710;BME280;37033;49.994;21.992;2023-04-26T01:16:14;98437.20;;;6.24;89.34
50710;BME280;37033;49.994;21.992;2023-04-26T01:18:51;98439.02;;;6.22;89.43
50710;BME280;37033;49.994;21.992;2023-04-26T01:21:22;98441.71;;;6.20;89.34
50710;BME280;37033;49.994;21.992;2023-04-26T01:23:53;98438.83;;;6.19;89.23
50710;BME280;37033;49.994;21.992;2023-04-26T01:26:24;98440.52;;;6.18;89.27
50710;BME280;37033;49.994;21.992;2023-04-26T01:28:55;98448.95;;;6.18;89.16
50710;BME280;37033;49.994;21.992;2023-04-26T01:31:26;98450.71;;;6.17;89.10
50710;BME280;37033;49.994;21.992;2023-04-26T01:33:56;98451.66;;;6.17;88.94
50710;BME280;37033;49.994;21.992;2023-04-26T01:36:27;98451.36;;;6.15;89.24
50710;BME280;37033;49.994;21.992;2023-04-26T01:38:58;98455.19;;;6.14;89.14
50710;BME280;37033;49.994;21.992;2023-04-26T01:41:28;98449.46;;;6.14;89.19
50710;BME280;37033;49.994;21.992;2023-04-26T01:43:59;98449.58;;;6.15;89.34
50710;BME280;37033;49.994;21.992;2023-04-26T01:46:30;98449.30;;;6.14;89.20
50710;BME280;37033;49.994;21.992;2023-04-26T01:49:01;98449.05;;;6.15;89.38
50710;BME280;37033;49.994;21.992;2023-04-26T01:51:31;98444.83;;;6.15;89.49
50710;BME280;37033;49.994;21.992;2023-04-26T01:54:03;98450.59;;;6.16;89.42
50710;BME280;37033;49.994;21.992;2023-04-26T01:56:34;98448.10;;;6.16;89.42
50710;BME280;37033;49.994;21.992;2023-04-26T01:59:05;98456.44;;;6.17;89.58
50710;BME280;37033;49.994;21.992;2023-04-26T02:01:36;98454.30;;;6.16;89.54
50710;BME280;37033;49.994;21.992;2023-04-26T02:04:07;98460.23;;;6.16;89.50
50710;BME280;37033;49.994;21.992;2023-04-26T02:06:37;98462.35;;;6.16;89.75
50710;BME280;37033;49.994;21.992;2023-04-26T02:09:10;98459.04;;;6.15;89.57
50710;BME280;37033;49.994;21.992;2023-04-26T02:11:40;98465.70;;;6.14;89.59
50710;BME280;37033;49.994;21.992;2023-04-26T02:14:11;98464.02;;;6.13;89.41
50710;BME280;37033;49.994;21.992;2023-04-26T02:16:42;98466.16;;;6.13;89.65
50710;BME280;37033;49.994;21.992;2023-04-26T02:19:13;98464.20;;;6.12;89.61
50710;BME280;37033;49.994;21.992;2023-04-26T02:21:54;98464.55;;;6.11;89.63
50710;BME280;37033;49.994;21.992;2023-04-26T02:24:26;98468.56;;;6.09;89.69
50710;BME280;37033;49.994;21.992;2023-04-26T02:26:56;98466.91;;;6.09;89.72
50710;BME280;37033;49.994;21.992;2023-04-26T02:29:30;98467.38;;;6.09;89.77
50710;BME280;37033;49.994;21.992;2023-04-26T02:32:01;98464.75;;;6.07;89.66
50710;BME280;37033;49.994;21.992;2023-04-26T02:34:32;98465.21;;;6.06;89.53
50710;BME280;37033;49.994;21.992;2023-04-26T02:37:03;98467.73;;;6.06;89.41
50710;BME280;37033;49.994;21.992;2023-04-26T02:39:33;98468.47;;;6.05;89.42
50710;BME280;37033;49.994;21.992;2023-04-26T02:42:04;98469.52;;;6.04;89.12
50710;BME280;37033;49.994;21.992;2023-04-26T02:44:37;98473.98;;;6.03;89.07
50710;BME280;37033;49.994;21.992;2023-04-26T02:47:08;98476.00;;;6.02;89.07
50710;BME280;37033;49.994;21.992;2023-04-26T02:49:39;98477.17;;;6.01;88.85
50710;BME280;37033;49.994;21.992;2023-04-26T02:52:09;98480.09;;;6.01;88.63
50710;BME280;37033;49.994;21.992;2023-04-26T02:54:40;98479.42;;;6.01;88.56
50710;BME280;37033;49.994;21.992;2023-04-26T02:57:10;98484.16;;;6.00;88.37
50710;BME280;37033;49.994;21.992;2023-04-26T02:59:41;98481.30;;;6.00;88.26
50710;BME280;37033;49.994;21.992;2023-04-26T03:02:12;98484.69;;;5.99;88.21
50710;BME280;37033;49.994;21.992;2023-04-26T03:04:43;98483.23;;;5.99;87.98
50710;BME280;37033;49.994;21.992;2023-04-26T03:07:14;98488.53;;;5.98;87.85
50710;BME280;37033;49.994;21.992;2023-04-26T03:09:45;98491.02;;;5.98;87.81
50710;BME280;37033;49.994;21.992;2023-04-26T03:12:16;98495.36;;;5.96;87.29
50710;BME280;37033;49.994;21.992;2023-04-26T03:14:46;98501.58;;;5.96;87.38
50710;BME280;37033;49.994;21.992;2023-04-26T03:17:17;98502.88;;;5.94;87.25
50710;BME280;37033;49.994;21.992;2023-04-26T03:19:48;98504.63;;;5.93;87.10
50710;BME280;37033;49.994;21.992;2023-04-26T03:22:19;98511.79;;;5.92;86.97
50710;BME280;37033;49.994;21.992;2023-04-26T03:24:49;98513.96;;;5.91;86.72
50710;BME280;37033;49.994;21.992;2023-04-26T03:27:20;98517.17;;;5.90;86.76
50710;BME280;37033;49.994;21.992;2023-04-26T03:29:51;98521.65;;;5.88;86.62
50710;BME280;37033;49.994;21.992;2023-04-26T03:32:21;98527.10;;;5.86;86.52
50710;BME280;37033;49.994;21.992;2023-04-26T03:34:52;98529.98;;;5.85;86.39
50710;BME280;37033;49.994;21.992;2023-04-26T03:37:23;98530.88;;;5.84;86.26
50710;BME280;37033;49.994;21.992;2023-04-26T03:39:54;98533.04;;;5.84;86.29
50710;BME280;37033;49.994;21.992;2023-04-26T03:42:27;98542.84;;;5.83;86.27
50710;BME280;37033;49.994;21.992;2023-04-26T03:44:58;98543.87;;;5.83;86.30
50710;BME280;37033;49.994;21.992;2023-04-26T03:47:29;98540.63;;;5.83;86.17
50710;BME280;37033;49.994;21.992;2023-04-26T03:50:04;98549.50;;;5.84;86.23
50710;BME280;37033;49.994;21.992;2023-04-26T03:52:34;98553.89;;;5.85;86.27
50710;BME280;37033;49.994;21.992;2023-04-26T03:55:07;98551.88;;;5.86;86.01
50710;BME280;37033;49.994;21.992;2023-04-26T03:57:40;98559.71;;;5.87;85.53
50710;BME280;37033;49.994;21.992;2023-04-26T04:00:12;98561.66;;;5.87;85.26
50710;BME280;37033;49.994;21.992;2023-04-26T04:02:43;98560.96;;;5.87;85.12
50710;BME280;37033;49.994;21.992;2023-04-26T04:05:14;98563.52;;;5.88;85.01
50710;BME280;37033;49.994;21.992;2023-04-26T04:07:45;98564.75;;;5.89;84.18
50710;BME280;37033;49.994;21.992;2023-04-26T04:10:16;98565.14;;;5.88;83.88
50710;BME280;37033;49.994;21.992;2023-04-26T04:12:51;98566.56;;;5.87;83.61
50710;BME280;37033;49.994;21.992;2023-04-26T04:15:24;98574.28;;;5.87;83.31
50710;BME280;37033;49.994;21.992;2023-04-26T04:17:58;98578.81;;;5.85;82.87
50710;BME280;37033;49.994;21.992;2023-04-26T04:20:29;98578.04;;;5.84;82.40
50710;BME280;37033;49.994;21.992;2023-04-26T04:23:03;98580.06;;;5.83;82.50
50710;BME280;37033;49.994;21.992;2023-04-26T04:25:36;98585.73;;;5.83;82.08
50710;BME280;37033;49.994;21.992;2023-04-26T04:28:07;98588.14;;;5.84;82.26
50710;BME280;37033;49.994;21.992;2023-04-26T04:30:38;98588.19;;;5.86;81.97
50710;BME280;37033;49.994;21.992;2023-04-26T04:33:11;98595.06;;;5.87;82.05
50710;BME280;37033;49.994;21.992;2023-04-26T04:35:42;98595.78;;;5.90;81.80
50710;BME280;37033;49.994;21.992;2023-04-26T04:38:13;98599.60;;;5.92;81.43
50710;BME280;37033;49.994;21.992;2023-04-26T04:40:49;98607.96;;;5.94;80.98
50710;BME280;37033;49.994;21.992;2023-04-26T04:43:20;98605.34;;;5.94;80.71
50710;BME280;37033;49.994;21.992;2023-04-26T04:45:51;98605.70;;;5.97;80.69
50710;BME280;37033;49.994;21.992;2023-04-26T04:48:24;98605.38;;;5.99;80.29
50710;BME280;37033;49.994;21.992;2023-04-26T04:50:55;98609.27;;;6.02;79.95
50710;BME280;37033;49.994;21.992;2023-04-26T04:53:26;98608.88;;;6.03;79.41
50710;BME280;37033;49.994;21.992;2023-04-26T04:55:57;98609.34;;;6.04;79.07
50710;BME280;37033;49.994;21.992;2023-04-26T04:58:33;98615.20;;;6.06;78.38
50710;BME280;37033;49.994;21.992;2023-04-26T05:01:04;98616.20;;;6.05;77.26
50710;BME280;37033;49.994;21.992;2023-04-26T05:03:38;98613.10;;;6.04;77.44
50710;BME280;37033;49.994;21.992;2023-04-26T05:06:10;98616.42;;;6.07;77.56
50710;BME280;37033;49.994;21.992;2023-04-26T05:08:40;98624.05;;;6.12;76.78
50710;BME280;37033;49.994;21.992;2023-04-26T05:11:11;98627.57;;;6.13;76.39
50710;BME280;37033;49.994;21.992;2023-04-26T05:13:42;98631.94;;;6.18;76.59
50710;BME280;37033;49.994;21.992;2023-04-26T05:16:13;98635.73;;;6.22;76.34
50710;BME280;37033;49.994;21.992;2023-04-26T05:18:44;98634.73;;;6.25;75.47
50710;BME280;37033;49.994;21.992;2023-04-26T05:21:15;98640.50;;;6.29;75.69
50710;BME280;37033;49.994;21.992;2023-04-26T05:23:45;98645.15;;;6.31;75.08
50710;BME280;37033;49.994;21.992;2023-04-26T05:26:18;98645.04;;;6.33;75.02
50710;BME280;37033;49.994;21.992;2023-04-26T05:28:49;98647.70;;;6.37;74.90
50710;BME280;37033;49.994;21.992;2023-04-26T05:31:20;98649.48;;;6.41;75.49
50710;BME280;37033;49.994;21.992;2023-04-26T05:33:51;98656.05;;;6.45;74.87
50710;BME280;37033;49.994;21.992;2023-04-26T05:36:25;98662.31;;;6.45;74.28
50710;BME280;37033;49.994;21.992;2023-04-26T05:39:01;98657.23;;;6.44;73.70
50710;BME280;37033;49.994;21.992;2023-04-26T05:41:34;98666.45;;;6.44;73.53
50710;BME280;37033;49.994;21.992;2023-04-26T05:44:07;98672.67;;;6.44;73.82
50710;BME280;37033;49.994;21.992;2023-04-26T05:46:38;98676.22;;;6.46;72.96
50710;BME280;37033;49.994;21.992;2023-04-26T05:49:08;98682.52;;;6.43;72.57
50710;BME280;37033;49.994;21.992;2023-04-26T05:51:39;98678.77;;;6.42;72.86
50710;BME280;37033;49.994;21.992;2023-04-26T05:54:13;98681.64;;;6.42;72.41
50710;BME280;37033;49.994;21.992;2023-04-26T05:56:50;98679.98;;;6.41;72.38
50710;BME280;37033;49.994;21.992;2023-04-26T05:59:20;98687.33;;;6.45;72.64
50710;BME280;37033;49.994;21.992;2023-04-26T06:01:54;98691.23;;;6.45;71.83
50710;BME280;37033;49.994;21.992;2023-04-26T06:04:24;98688.80;;;6.46;71.94
50710;BME280;37033;49.994;21.992;2023-04-26T06:06:58;98693.56;;;6.48;71.71
50710;BME280;37033;49.994;21.992;2023-04-26T06:09:34;98698.10;;;6.50;71.69
50710;BME280;37033;49.994;21.992;2023-04-26T06:12:08;98694.81;;;6.52;71.41
50710;BME280;37033;49.994;21.992;2023-04-26T06:14:38;98700.59;;;6.55;71.70
50710;BME280;37033;49.994;21.992;2023-04-26T06:17:12;98709.43;;;6.59;71.23
50710;BME280;37033;49.994;21.992;2023-04-26T06:19:43;98712.64;;;6.60;71.50
50710;BME280;37033;49.994;21.992;2023-04-26T06:22:16;98713.66;;;6.62;71.13
50710;BME280;37033;49.994;21.992;2023-04-26T06:24:46;98713.75;;;6.61;70.78
50710;BME280;37033;49.994;21.992;2023-04-26T06:27:17;98711.84;;;6.58;70.71
50710;BME280;37033;49.994;21.992;2023-04-26T06:29:48;98718.77;;;6.56;70.51
50710;BME280;37033;49.994;21.992;2023-04-26T06:32:20;98720.40;;;6.55;70.65
50710;BME280;37033;49.994;21.992;2023-04-26T06:34:50;98721.92;;;6.55;70.25
50710;BME280;37033;49.994;21.992;2023-04-26T06:37:21;98724.44;;;6.54;70.19
50710;BME280;37033;49.994;21.992;2023-04-26T06:39:52;98729.36;;;6.57;69.79
50710;BME280;37033;49.994;21.992;2023-04-26T06:42:23;98726.44;;;6.57;69.37
50710;BME280;37033;49.994;21.992;2023-04-26T06:44:56;98721.34;;;6.56;69.65
50710;BME280;37033;49.994;21.992;2023-04-26T06:47:27;98730.63;;;6.60;69.85
50710;BME280;37033;49.994;21.992;2023-04-26T06:50:01;98730.41;;;6.66;69.91
50710;BME280;37033;49.994;21.992;2023-04-26T06:52:32;98731.98;;;6.72;69.59
50710;BME280;37033;49.994;21.992;2023-04-26T06:55:04;98729.61;;;6.78;69.77
50710;BME280;37033;49.994;21.992;2023-04-26T06:57:35;98732.45;;;6.84;69.67
50710;BME280;37033;49.994;21.992;2023-04-26T07:00:08;98733.87;;;6.86;69.44
50710;BME280;37033;49.994;21.992;2023-04-26T07:02:39;98733.56;;;6.87;69.30
50710;BME280;37033;49.994;21.992;2023-04-26T07:05:10;98734.74;;;6.89;69.59
50710;BME280;37033;49.994;21.992;2023-04-26T07:07:44;98738.95;;;6.90;68.68
50710;BME280;37033;49.994;21.992;2023-04-26T07:10:15;98739.11;;;6.88;68.19
50710;BME280;37033;49.994;21.992;2023-04-26T07:12:46;98742.48;;;6.85;67.84
50710;BME280;37033;49.994;21.992;2023-04-26T07:15:19;98739.48;;;6.86;68.38
50710;BME280;37033;49.994;21.992;2023-04-26T07:17:50;98744.52;;;6.87;67.99
50710;BME280;37033;49.994;21.992;2023-04-26T07:20:24;98749.05;;;6.88;68.02
50710;BME280;37033;49.994;21.992;2023-04-26T07:22:54;98748.45;;;6.93;68.38
50710;BME280;37033;49.994;21.992;2023-04-26T07:25:31;98752.50;;;7.04;68.88
50710;BME280;37033;49.994;21.992;2023-04-26T07:28:01;98748.90;;;7.19;69.26
50710;BME280;37033;49.994;21.992;2023-04-26T07:30:32;98756.63;;;7.36;68.99
50710;BME280;37033;49.994;21.992;2023-04-26T07:33:03;98747.91;;;7.42;67.68
50710;BME280;37033;49.994;21.992;2023-04-26T07:35:35;98749.16;;;7.43;67.99
50710;BME280;37033;49.994;21.992;2023-04-26T07:38:06;98753.30;;;7.49;67.99
50710;BME280;37033;49.994;21.992;2023-04-26T07:40:41;98757.44;;;7.55;67.84
50710;BME280;37033;49.994;21.992;2023-04-26T07:43:12;98755.22;;;7.58;67.71
50710;BME280;37033;49.994;21.992;2023-04-26T07:45:43;98754.79;;;7.63;67.52
50710;BME280;37033;49.994;21.992;2023-04-26T07:48:17;98760.91;;;7.68;68.13
50710;BME280;37033;49.994;21.992;2023-04-26T07:50:48;98763.91;;;7.77;68.14
50710;BME280;37033;49.994;21.992;2023-04-26T07:53:21;98766.81;;;7.84;67.95
50710;BME280;37033;49.994;21.992;2023-04-26T07:55:52;98768.14;;;7.86;66.58
50710;BME280;37033;49.994;21.992;2023-04-26T07:58:23;98767.48;;;7.85;66.31
50710;BME280;37033;49.994;21.992;2023-04-26T08:00:54;98764.86;;;7.86;66.70
50710;BME280;37033;49.994;21.992;2023-04-26T08:03:24;98768.77;;;7.92;66.17
50710;BME280;37033;49.994;21.992;2023-04-26T08:05:56;98768.44;;;8.00;65.81
50710;BME280;37033;49.994;21.992;2023-04-26T08:08:33;98767.29;;;8.10;65.47
50710;BME280;37033;49.994;21.992;2023-04-26T08:11:09;98770.94;;;8.11;64.42
50710;BME280;37033;49.994;21.992;2023-04-26T08:13:43;98777.48;;;8.08;63.43
50710;BME280;37033;49.994;21.992;2023-04-26T08:16:14;98766.36;;;8.16;63.93
50710;BME280;37033;49.994;21.992;2023-04-26T08:18:45;98763.02;;;8.30;63.86
50710;BME280;37033;49.994;21.992;2023-04-26T08:21:16;98767.77;;;8.40;61.31
50710;BME280;37033;49.994;21.992;2023-04-26T08:23:46;98769.92;;;8.38;61.05
50710;BME280;37033;49.994;21.992;2023-04-26T08:26:22;98766.30;;;8.43;61.26
50710;BME280;37033;49.994;21.992;2023-04-26T08:28:55;98763.12;;;8.52;60.85
50710;BME280;37033;49.994;21.992;2023-04-26T08:31:26;98757.04;;;8.60;61.36
50710;BME280;37033;49.994;21.992;2023-04-26T08:33:57;98755.52;;;8.63;60.42
50710;BME280;37033;49.994;21.992;2023-04-26T08:36:28;98756.02;;;8.63;60.45
50710;BME280;37033;49.994;21.992;2023-04-26T08:39:03;98750.43;;;8.63;60.95
50710;BME280;37033;49.994;21.992;2023-04-26T08:41:36;98754.08;;;8.71;60.60
50710;BME280;37033;49.994;21.992;2023-04-26T08:44:07;98757.27;;;8.86;59.77
50710;BME280;37033;49.994;21.992;2023-04-26T08:46:43;98756.64;;;9.05;57.84
50710;BME280;37033;49.994;21.992;2023-04-26T08:49:33;98757.09;;;9.06;56.70
50710;BME280;37033;49.994;21.992;2023-04-26T08:52:14;98759.31;;;9.10;56.01
50710;BME280;37033;49.994;21.992;2023-04-26T08:54:46;98753.29;;;9.27;56.43
50710;BME280;37033;49.994;21.992;2023-04-26T08:57:17;98759.08;;;9.37;55.19
50710;BME280;37033;49.994;21.992;2023-04-26T08:59:48;98748.52;;;9.34;54.72
50710;BME280;37033;49.994;21.992;2023-04-26T09:02:22;98760.87;;;9.26;53.87
50710;BME280;37033;49.994;21.992;2023-04-26T09:04:53;98767.70;;;9.15;53.91
50710;BME280;37033;49.994;21.992;2023-04-26T09:07:30;98772.21;;;9.06;54.64
50710;BME280;37033;49.994;21.992;2023-04-26T09:10:10;98774.12;;;8.99;54.51
50710;BME280;37033;49.994;21.992;2023-04-26T09:12:41;98771.46;;;9.03;55.46
50710;BME280;37033;49.994;21.992;2023-04-26T09:15:14;98776.37;;;9.15;54.93
50710;BME280;37033;49.994;21.992;2023-04-26T09:17:45;98768.44;;;9.31;53.44
50710;BME280;37033;49.994;21.992;2023-04-26T09:20:23;98765.98;;;9.49;53.80
50710;BME280;37033;49.994;21.992;2023-04-26T09:23:03;98774.05;;;9.56;53.43
50710;BME280;37033;49.994;21.992;2023-04-26T09:25:34;98778.12;;;9.44;53.27
50710;BME280;37033;49.994;21.992;2023-04-26T09:28:20;98782.95;;;9.25;52.98
50710;BME280;37033;49.994;21.992;2023-04-26T09:30:54;98786.61;;;9.14;53.98
50710;BME280;37033;49.994;21.992;2023-04-26T09:33:28;98783.54;;;9.08;53.53
50710;BME280;37033;49.994;21.992;2023-04-26T09:36:13;98783.10;;;9.02;53.32
50710;BME280;37033;49.994;21.992;2023-04-26T09:38:47;98792.29;;;8.93;53.89
50710;BME280;37033;49.994;21.992;2023-04-26T09:41:18;98795.05;;;8.84;53.52
50710;BME280;37033;49.994;21.992;2023-04-26T09:43:51;98795.29;;;8.75;54.21
50710;BME280;37033;49.994;21.992;2023-04-26T09:46:23;98793.95;;;8.74;54.77
50710;BME280;37033;49.994;21.992;2023-04-26T09:49:04;98797.48;;;8.73;54.32
50710;BME280;37033;49.994;21.992;2023-04-26T09:51:36;98794.20;;;8.68;54.26
50710;BME280;37033;49.994;21.992;2023-04-26T09:54:06;98795.80;;;8.73;54.11
50710;BME280;37033;49.994;21.992;2023-04-26T09:56:37;98797.41;;;8.79;54.11
50710;BME280;37033;49.994;21.992;2023-04-26T09:59:08;98798.23;;;8.89;53.89
50710;BME280;37033;49.994;21.992;2023-04-26T10:01:40;98801.14;;;9.03;53.90
50710;BME280;37033;49.994;21.992;2023-04-26T10:04:10;98794.20;;;9.17;53.95
50710;BME280;37033;49.994;21.992;2023-04-26T10:06:41;98797.36;;;9.25;53.93
50710;BME280;37033;49.994;21.992;2023-04-26T10:09:12;98802.20;;;9.26;53.84
50710;BME280;37033;49.994;21.992;2023-04-26T10:11:43;98802.99;;;9.21;53.67
50710;BME280;37033;49.994;21.992;2023-04-26T10:14:14;98805.69;;;9.13;53.69
50710;BME280;37033;49.994;21.992;2023-04-26T10:16:51;98814.20;;;9.07;53.96
50710;BME280;37033;49.994;21.992;2023-04-26T10:19:24;98814.52;;;9.00;53.37
50710;BME280;37033;49.994;21.992;2023-04-26T10:21:58;98818.11;;;8.95;54.00
50710;BME280;37033;49.994;21.992;2023-04-26T10:24:29;98813.09;;;8.96;54.16
50710;BME280;37033;49.994;21.992;2023-04-26T10:27:00;98817.73;;;8.95;53.93
50710;BME280;37033;49.994;21.992;2023-04-26T10:36:06;98826.08;;;8.82;52.60
50710;BME280;37033;49.994;21.992;2023-04-26T10:38:39;98826.62;;;8.82;52.77
50710;BME280;37033;49.994;21.992;2023-04-26T10:41:30;98819.25;;;8.85;53.11
50710;BME280;37033;49.994;21.992;2023-04-26T10:47:05;98810.00;;;9.01;53.29
50710;BME280;37033;49.994;21.992;2023-04-26T10:49:46;98811.91;;;9.09;52.38
50710;BME280;37033;49.994;21.992;2023-04-26T10:52:18;98816.44;;;9.11;52.47
50710;BME280;37033;49.994;21.992;2023-04-26T10:54:54;98813.00;;;9.09;52.73
50710;BME280;37033;49.994;21.992;2023-04-26T10:57:51;98818.48;;;9.07;52.58
50710;BME280;37033;49.994;21.992;2023-04-26T11:00:31;98817.03;;;8.98;52.22
50710;BME280;37033;49.994;21.992;2023-04-26T11:03:08;98818.28;;;8.91;53.08
50710;BME280;37033;49.994;21.992;2023-04-26T11:05:49;98819.29;;;8.94;53.67
50710;BME280;37033;49.994;21.992;2023-04-26T11:08:23;98822.23;;;9.00;54.06
50710;BME280;37033;49.994;21.992;2023-04-26T11:11:05;98822.85;;;9.08;53.59
50710;BME280;37033;49.994;21.992;2023-04-26T11:13:39;98820.71;;;9.20;52.93
50710;BME280;37033;49.994;21.992;2023-04-26T11:16:11;98817.89;;;9.48;52.42
50710;BME280;37033;49.994;21.992;2023-04-26T11:18:44;98808.06;;;9.70;50.88
50710;BME280;37033;49.994;21.992;2023-04-26T11:21:14;98811.17;;;9.75;49.92
50710;BME280;37033;49.994;21.992;2023-04-26T11:23:55;98813.66;;;9.70;49.79
50710;BME280;37033;49.994;21.992;2023-04-26T11:26:32;98817.83;;;9.62;49.77
50710;BME280;37033;49.994;21.992;2023-04-26T11:29:07;98825.24;;;9.54;49.52
50710;BME280;37033;49.994;21.992;2023-04-26T11:31:41;98832.60;;;9.48;49.11
50710;BME280;37033;49.994;21.992;2023-04-26T11:34:12;98835.96;;;9.48;49.47
50710;BME280;37033;49.994;21.992;2023-04-26T11:36:44;98836.43;;;9.51;47.77
50710;BME280;37033;49.994;21.992;2023-04-26T11:39:22;98835.98;;;9.52;47.24
50710;BME280;37033;49.994;21.992;2023-04-26T11:41:56;98836.25;;;9.53;46.66
50710;BME280;37033;49.994;21.992;2023-04-26T11:44:34;98831.73;;;9.55;46.49
50710;BME280;37033;49.994;21.992;2023-04-26T11:47:06;98835.20;;;9.56;47.09
50710;BME280;37033;49.994;21.992;2023-04-26T11:49:40;98838.16;;;9.57;47.03
50710;BME280;37033;49.994;21.992;2023-04-26T11:52:11;98840.04;;;9.59;46.66
50710;BME280;37033;49.994;21.992;2023-04-26T11:54:42;98841.34;;;9.59;45.41
50710;BME280;37033;49.994;21.992;2023-04-26T11:57:17;98838.63;;;9.59;45.80
50710;BME280;37033;49.994;21.992;2023-04-26T11:59:50;98834.42;;;9.62;45.90
50710;BME280;37033;49.994;21.992;2023-04-26T12:02:28;98834.15;;;9.64;46.24
50710;BME280;37033;49.994;21.992;2023-04-26T12:05:00;98836.05;;;9.69;45.38
50710;BME280;37033;49.994;21.992;2023-04-26T12:07:35;98834.67;;;9.71;45.27
50710;BME280;37033;49.994;21.992;2023-04-26T12:10:17;98838.94;;;9.78;44.95
50710;BME280;37033;49.994;21.992;2023-04-26T12:12:51;98841.92;;;9.81;45.56
50710;BME280;37033;49.994;21.992;2023-04-26T12:15:29;98845.75;;;9.86;45.72
50710;BME280;37033;49.994;21.992;2023-04-26T12:18:04;98843.59;;;9.95;44.64
50710;BME280;37033;49.994;21.992;2023-04-26T12:20:36;98845.21;;;10.11;44.15
50710;BME280;37033;49.994;21.992;2023-04-26T12:23:09;98838.48;;;10.20;42.91
50710;BME280;37033;49.994;21.992;2023-04-26T12:25:41;98840.83;;;10.21;43.82
50710;BME280;37033;49.994;21.992;2023-04-26T12:28:20;98841.66;;;10.23;44.01
50710;BME280;37033;49.994;21.992;2023-04-26T12:30:51;98846.50;;;10.23;44.14
50710;BME280;37033;49.994;21.992;2023-04-26T12:33:22;98845.63;;;10.22;44.32
50710;BME280;37033;49.994;21.992;2023-04-26T12:35:53;98849.53;;;10.21;45.13
50710;BME280;37033;49.994;21.992;2023-04-26T12:38:26;98855.02;;;10.21;45.05
50710;BME280;37033;49.994;21.992;2023-04-26T12:40:56;98855.71;;;10.13;43.77
50710;BME280;37033;49.994;21.992;2023-04-26T12:43:27;98856.27;;;9.98;43.27
50710;BME280;37033;49.994;21.992;2023-04-26T12:45:58;98861.13;;;9.80;42.22
50710;BME280;37033;49.994;21.992;2023-04-26T12:48:28;98863.42;;;9.63;42.36
50710;BME280;37033;49.994;21.992;2023-04-26T12:50:59;98863.81;;;9.52;43.26
50710;BME280;37033;49.994;21.992;2023-04-26T12:53:30;98866.23;;;9.47;44.01
50710;BME280;37033;49.994;21.992;2023-04-26T12:56:00;98867.60;;;9.48;44.41
50710;BME280;37033;49.994;21.992;2023-04-26T12:58:31;98872.18;;;9.50;43.80
50710;BME280;37033;49.994;21.992;2023-04-26T13:01:02;98872.75;;;9.48;43.87
50710;BME280;37033;49.994;21.992;2023-04-26T13:03:32;98872.98;;;9.58;44.05
50710;BME280;37033;49.994;21.992;2023-04-26T13:06:04;98870.21;;;9.84;44.56
50710;BME280;37033;49.994;21.992;2023-04-26T13:08:35;98861.10;;;10.14;44.59
50710;BME280;37033;49.994;21.992;2023-04-26T13:11:06;98862.81;;;10.39;44.54
50710;BME280;37033;49.994;21.992;2023-04-26T13:13:37;98863.45;;;10.57;43.57
50710;BME280;37033;49.994;21.992;2023-04-26T13:16:08;98867.53;;;10.56;41.66
50710;BME280;37033;49.994;21.992;2023-04-26T13:18:38;98869.35;;;10.44;41.80
50710;BME280;37033;49.994;21.992;2023-04-26T13:21:09;98872.20;;;10.33;41.73
50710;BME280;37033;49.994;21.992;2023-04-26T13:23:40;98868.23;;;10.33;42.31
50710;BME280;37033;49.994;21.992;2023-04-26T13:26:11;98865.86;;;10.31;42.41
50710;BME280;37033;49.994;21.992;2023-04-26T13:28:42;98861.27;;;10.26;43.23
50710;BME280;37033;49.994;21.992;2023-04-26T13:31:13;98868.00;;;10.26;43.56
50710;BME280;37033;49.994;21.992;2023-04-26T13:33:45;98866.29;;;10.24;43.90
50710;BME280;37033;49.994;21.992;2023-04-26T13:36:17;98869.02;;;10.21;44.26